createdAt,value
2018-02-01T00:01:31.042Z,0.43
2018-02-01T00:03:57.772Z,0.50
2018-02-01T00:06:24.486Z,0.40
2018-02-01T00:08:51.218Z,0.60
2018-02-01T00:11:17.907Z,0.50
2018-02-01T00:13:44.605Z,0.30
2018-02-01T00:16:11.344Z,0.70
2018-02-01T00:18:38.074Z,0.40
2018-02-01T00:21:04.778Z,0.60
2018-02-01T00:23:31.539Z,0.50
2018-02-01T00:25:58.207Z,0.60
2018-02-01T00:28:24.960Z,0.40
2018-02-01T00:30:51.690Z,0.50
2018-02-01T00:33:18.366Z,0.50
2018-02-01T00:35:50.755Z,0.50
2018-02-01T00:38:17.526Z,0.70
2018-02-01T00:40:44.211Z,0.40
2018-02-01T00:43:10.919Z,0.60
2018-02-01T00:45:37.661Z,0.43
2018-02-01T00:48:08.153Z,0.67
2018-02-01T00:50:34.864Z,0.50
2018-02-01T00:53:01.553Z,0.40
2018-02-01T00:55:28.341Z,0.70
2018-02-01T00:57:55.080Z,0.40
2018-02-01T01:00:22.752Z,0.60
2018-02-01T01:02:49.447Z,0.50
2018-02-01T01:05:16.223Z,0.57
2018-02-01T01:07:42.951Z,0.60
2018-02-01T01:10:09.643Z,0.60
2018-02-01T01:12:36.371Z,0.53
2018-02-01T01:15:03.101Z,0.53
2018-02-01T01:17:29.846Z,0.70
2018-02-01T01:19:56.551Z,0.70
2018-02-01T01:22:23.259Z,0.67
2018-02-01T01:24:50.081Z,0.63
2018-02-01T01:27:16.784Z,0.40
2018-02-01T01:29:43.475Z,0.63
2018-02-01T01:32:10.181Z,0.70
2018-02-01T01:34:36.878Z,0.50
2018-02-01T01:37:03.585Z,0.60
2018-02-01T01:39:30.285Z,0.50
2018-02-01T01:41:57.033Z,0.70
2018-02-01T01:44:23.794Z,0.50
2018-02-01T01:46:50.474Z,0.40
2018-02-01T01:49:17.222Z,0.50
2018-02-01T01:51:44.057Z,0.50
2018-02-01T01:54:10.732Z,0.50
2018-02-01T01:56:37.460Z,0.50
2018-02-01T01:59:04.420Z,0.40
2018-02-01T02:01:31.231Z,0.60
2018-02-01T02:03:57.933Z,0.40
2018-02-01T02:06:24.652Z,0.80
2018-02-01T02:08:51.488Z,0.60
2018-02-01T02:11:18.218Z,0.60
2018-02-01T02:13:44.923Z,0.50
2018-02-01T02:16:11.601Z,0.83
2018-02-01T02:18:38.341Z,0.60
2018-02-01T02:21:05.053Z,0.60
2018-02-01T02:23:31.782Z,0.70
2018-02-01T02:25:58.539Z,0.50
2018-02-01T02:28:25.238Z,0.67
2018-02-01T02:30:51.983Z,0.70
2018-02-01T02:33:18.677Z,0.60
2018-02-01T02:35:45.386Z,0.50
2018-02-01T02:38:12.082Z,0.50
2018-02-01T02:40:38.803Z,0.40
2018-02-01T02:43:05.503Z,0.70
2018-02-01T02:45:32.247Z,0.60
2018-02-01T02:47:58.985Z,0.60
2018-02-01T02:50:25.688Z,0.60
2018-02-01T02:52:52.391Z,0.50
2018-02-01T02:55:19.104Z,0.43
2018-02-01T02:57:45.863Z,0.63
2018-02-01T03:00:12.591Z,0.60
2018-02-01T03:02:40.066Z,0.50
2018-02-01T03:05:06.739Z,0.40
2018-02-01T03:07:33.452Z,0.60
2018-02-01T03:10:00.298Z,0.53
2018-02-01T03:12:27.001Z,0.67
2018-02-01T03:14:53.717Z,0.43
2018-02-01T03:17:20.426Z,0.50
2018-02-01T03:19:47.143Z,0.47
2018-02-01T03:22:13.952Z,0.50
2018-02-01T03:24:40.648Z,0.80
2018-02-01T03:27:07.366Z,0.70
2018-02-01T03:29:34.074Z,0.80
2018-02-01T03:32:00.844Z,0.60
2018-02-01T03:34:27.954Z,0.80
2018-02-01T03:36:55.549Z,0.60
2018-02-01T03:39:22.262Z,0.93
2018-02-01T03:41:48.996Z,0.60
2018-02-01T03:44:16.005Z,0.50
2018-02-01T03:46:42.782Z,0.50
2018-02-01T03:49:09.545Z,0.50
2018-02-01T03:51:36.269Z,0.50
2018-02-01T03:54:03.598Z,0.53
2018-02-01T03:56:30.312Z,0.40
2018-02-01T03:58:57.087Z,0.40
2018-02-01T04:01:23.814Z,0.60
2018-02-01T04:03:50.502Z,0.50
2018-02-01T04:06:17.196Z,0.67
2018-02-01T04:08:43.920Z,0.80
2018-02-01T04:11:10.670Z,0.50
2018-02-01T04:13:37.393Z,0.73
2018-02-01T04:16:04.179Z,0.60
2018-02-01T04:18:30.920Z,0.67
2018-02-01T04:20:57.647Z,0.60
2018-02-01T04:23:24.334Z,0.70
2018-02-01T04:25:51.053Z,0.80
2018-02-01T04:28:17.838Z,0.60
2018-02-01T04:30:44.552Z,0.60
2018-02-01T04:33:12.047Z,2.20
2018-02-01T04:35:38.772Z,1.10
2018-02-01T04:38:05.453Z,0.90
2018-02-01T04:40:32.149Z,0.90
2018-02-01T04:42:58.846Z,1.00
2018-02-01T04:45:25.525Z,0.87
2018-02-01T04:47:52.215Z,0.70
2018-02-01T04:50:18.927Z,1.20
2018-02-01T04:52:45.651Z,0.93
2018-02-01T04:55:12.385Z,0.90
2018-02-01T04:57:39.174Z,0.70
2018-02-01T05:00:05.841Z,1.10
2018-02-01T05:02:33.266Z,0.87
2018-02-01T05:04:59.977Z,0.80
2018-02-01T05:07:27.422Z,1.50
2018-02-01T05:09:54.114Z,1.03
2018-02-01T05:12:20.808Z,1.13
2018-02-01T05:14:47.514Z,0.93
2018-02-01T05:17:14.228Z,1.23
2018-02-01T05:19:40.939Z,1.10
2018-02-01T05:22:07.665Z,1.30
2018-02-01T05:24:34.381Z,1.63
2018-02-01T05:27:01.058Z,1.10
2018-02-01T05:29:27.829Z,1.50
2018-02-01T05:31:54.564Z,1.10
2018-02-01T05:34:21.276Z,1.20
2018-02-01T05:36:48.012Z,1.20
2018-02-01T05:39:14.696Z,1.43
2018-02-01T05:41:41.390Z,1.60
2018-02-01T05:44:08.093Z,1.10
2018-02-01T05:46:34.829Z,1.37
2018-02-01T05:49:01.558Z,1.30
2018-02-01T05:51:28.333Z,0.80
2018-02-01T05:53:55.069Z,1.07
2018-02-01T05:56:21.793Z,1.07
2018-02-01T05:58:48.469Z,1.13
2018-02-01T06:01:15.193Z,0.83
2018-02-01T06:03:41.919Z,1.10
2018-02-01T06:06:08.613Z,1.00
2018-02-01T06:08:35.393Z,1.00
2018-02-01T06:11:02.305Z,1.00
2018-02-01T06:13:28.990Z,1.20
2018-02-01T06:15:55.714Z,1.10
2018-02-01T06:18:22.426Z,1.13
2018-02-01T06:20:49.109Z,0.77
2018-02-01T06:23:15.880Z,0.90
2018-02-01T06:25:42.666Z,1.00
2018-02-01T06:28:10.206Z,1.40
2018-02-01T06:30:36.991Z,1.13
2018-02-01T06:33:03.787Z,1.20
2018-02-01T06:35:30.515Z,1.33
2018-02-01T06:37:57.441Z,1.33
2018-02-01T06:40:24.450Z,1.03
2018-02-01T06:42:51.200Z,1.57
2018-02-01T06:45:17.944Z,0.90
2018-02-01T06:47:45.051Z,1.20
2018-02-01T06:50:11.828Z,1.30
2018-02-01T06:52:38.506Z,1.53
2018-02-01T06:55:05.778Z,2.20
2018-02-01T06:57:32.511Z,1.40
2018-02-01T06:59:59.207Z,2.00
2018-02-01T07:02:25.908Z,1.73
2018-02-01T07:04:52.599Z,1.10
2018-02-01T07:07:19.347Z,1.50
2018-02-01T07:09:46.043Z,1.20
2018-02-01T07:12:12.718Z,2.20
2018-02-01T07:14:39.417Z,1.20
2018-02-01T07:17:06.102Z,2.47
2018-02-01T07:19:32.832Z,2.00
2018-02-01T07:21:59.610Z,1.50
2018-02-01T07:24:26.541Z,1.90
2018-02-01T07:26:53.272Z,2.20
2018-02-01T07:29:20.001Z,2.03
2018-02-01T07:31:46.770Z,2.40
2018-02-01T07:34:13.512Z,1.30
2018-02-01T07:36:40.244Z,1.50
2018-02-01T07:39:06.940Z,1.60
2018-02-01T07:41:34.257Z,1.67
2018-02-01T07:44:01.404Z,1.50
2018-02-01T07:46:29.973Z,1.63
2018-02-01T07:48:56.697Z,1.23
2018-02-01T07:51:23.389Z,1.10
2018-02-01T07:53:51.535Z,1.40
2018-02-01T07:56:18.217Z,1.20
2018-02-01T07:58:45.054Z,1.60
2018-02-01T08:01:11.947Z,1.90
2018-02-01T08:03:38.668Z,1.43
2018-02-01T08:06:05.361Z,1.70
2018-02-01T08:08:32.268Z,1.97
2018-02-01T08:10:59.011Z,1.83
2018-02-01T08:13:25.747Z,2.03
2018-02-01T08:15:52.531Z,1.90
2018-02-01T08:18:19.669Z,2.13
2018-02-01T08:20:46.394Z,1.57
2018-02-01T08:23:13.177Z,1.80
2018-02-01T08:25:39.891Z,2.50
2018-02-01T08:28:06.765Z,2.03
2018-02-01T08:30:33.447Z,1.70
2018-02-01T08:33:00.200Z,1.50
2018-02-01T08:35:27.284Z,1.90
2018-02-01T08:37:53.980Z,1.70
2018-02-01T08:40:20.726Z,1.77
2018-02-01T08:42:47.416Z,1.90
2018-02-01T08:45:14.786Z,1.63
2018-02-01T08:47:41.489Z,1.30
2018-02-01T08:50:08.220Z,1.20
2018-02-01T08:52:35.754Z,1.30
2018-02-01T08:55:02.420Z,1.50
2018-02-01T08:57:29.639Z,1.43
2018-02-01T08:59:56.374Z,1.63
2018-02-01T09:02:23.086Z,2.10
2018-02-01T09:04:49.871Z,1.50
2018-02-01T09:07:16.554Z,1.40
2018-02-01T09:09:43.274Z,1.60
2018-02-01T09:12:10.008Z,1.60
2018-02-01T09:14:36.693Z,1.50
2018-02-01T09:17:03.424Z,1.43
2018-02-01T09:19:30.130Z,1.40
2018-02-01T09:21:56.913Z,1.43
2018-02-01T09:24:23.619Z,2.23
2018-02-01T09:26:50.339Z,2.13
2018-02-01T09:29:17.099Z,1.57
2018-02-01T09:31:43.797Z,1.30
2018-02-01T09:34:10.481Z,1.60
2018-02-01T09:36:37.334Z,1.27
2018-02-01T09:39:04.064Z,1.70
2018-02-01T09:41:30.774Z,1.90
2018-02-01T09:43:57.502Z,1.60
2018-02-01T09:46:24.280Z,1.77
2018-02-01T09:48:51.736Z,1.60
2018-02-01T09:51:18.496Z,1.90
2018-02-01T09:53:45.219Z,2.13
2018-02-01T09:56:11.898Z,2.50
2018-02-01T09:58:39.481Z,1.57
2018-02-01T10:01:06.182Z,2.20
2018-02-01T10:03:32.881Z,2.17
2018-02-01T10:05:59.600Z,2.23
2018-02-01T10:08:26.953Z,2.23
2018-02-01T10:10:53.762Z,2.70
2018-02-01T10:13:20.441Z,2.43
2018-02-01T10:15:47.201Z,2.10
2018-02-01T10:18:13.915Z,2.50
2018-02-01T10:20:40.731Z,2.40
2018-02-01T10:23:07.519Z,2.30
2018-02-01T10:25:35.487Z,2.73
2018-02-01T10:28:02.168Z,2.90
2018-02-01T10:30:29.903Z,2.17
2018-02-01T10:32:56.589Z,2.10
2018-02-01T10:35:23.281Z,1.70
2018-02-01T10:37:50.032Z,2.00
2018-02-01T10:40:16.702Z,2.13
2018-02-01T10:42:43.436Z,1.97
2018-02-01T10:45:10.248Z,1.80
2018-02-01T10:47:36.935Z,3.07
2018-02-01T10:50:03.702Z,1.00
2018-02-01T10:52:30.506Z,1.30
2018-02-01T10:54:57.489Z,1.03
2018-02-01T10:57:25.742Z,1.33
2018-02-01T10:59:52.480Z,1.00
2018-02-01T11:02:20.862Z,1.17
2018-02-01T11:04:47.574Z,0.90
2018-02-01T11:07:17.582Z,1.30
2018-02-01T11:09:44.422Z,1.40
2018-02-01T11:12:11.098Z,1.50
2018-02-01T11:14:37.848Z,1.63
2018-02-01T11:17:04.613Z,1.30
2018-02-01T11:19:31.316Z,1.27
2018-02-01T11:21:58.057Z,1.10
2018-02-01T11:24:24.939Z,1.43
2018-02-01T11:26:51.661Z,1.53
2018-02-01T11:29:18.407Z,1.30
2018-02-01T11:31:45.601Z,0.83
2018-02-01T11:34:12.301Z,1.20
2018-02-01T11:36:38.969Z,1.40
2018-02-01T11:39:05.713Z,1.50
2018-02-01T11:41:32.506Z,1.33
2018-02-01T11:43:59.220Z,1.17
2018-02-01T11:46:26.029Z,1.30
2018-02-01T11:48:52.725Z,1.80
2018-02-01T11:51:19.445Z,1.57
2018-02-01T11:53:46.127Z,1.37
2018-02-01T11:56:12.861Z,1.57
2018-02-01T11:58:39.584Z,1.33
2018-02-01T12:01:06.321Z,1.20
2018-02-01T12:03:33.004Z,1.30
2018-02-01T12:05:59.778Z,1.47
2018-02-01T12:08:26.484Z,1.40
2018-02-01T12:10:53.273Z,1.70
2018-02-01T12:13:20.047Z,1.70
2018-02-01T12:15:46.919Z,2.47
2018-02-01T12:18:15.198Z,1.90
2018-02-01T12:20:41.895Z,1.50
2018-02-01T12:23:10.928Z,1.50
2018-02-01T12:25:37.618Z,1.60
2018-02-01T12:28:05.354Z,1.60
2018-02-01T12:30:32.462Z,1.40
2018-02-01T12:32:59.166Z,1.20
2018-02-01T12:35:26.068Z,1.53
2018-02-01T12:37:53.324Z,1.47
2018-02-01T12:40:20.054Z,1.57
2018-02-01T12:42:46.874Z,1.80
2018-02-01T12:45:13.576Z,1.77
2018-02-01T12:47:40.258Z,1.90
2018-02-01T12:50:06.985Z,1.50
2018-02-01T12:52:33.697Z,1.83
2018-02-01T12:55:00.786Z,1.37
2018-02-01T12:57:27.526Z,1.80
2018-02-01T12:59:54.221Z,1.37
2018-02-01T13:02:21.107Z,1.20
2018-02-01T13:04:48.103Z,2.03
2018-02-01T13:07:15.921Z,1.90
2018-02-01T13:09:43.629Z,1.60
2018-02-01T13:12:10.313Z,1.47
2018-02-01T13:14:37.066Z,1.37
2018-02-01T13:17:03.726Z,1.80
2018-02-01T13:19:31.434Z,1.80
2018-02-01T13:21:58.168Z,1.13
2018-02-01T13:24:24.857Z,1.40
2018-02-01T13:26:51.530Z,1.20
2018-02-01T13:29:18.225Z,1.70
2018-02-01T13:31:44.963Z,1.93
2018-02-01T13:34:12.439Z,1.37
2018-02-01T13:36:40.300Z,1.87
2018-02-01T13:39:06.969Z,1.30
2018-02-01T13:41:33.671Z,2.03
2018-02-01T13:44:00.829Z,1.30
2018-02-01T13:46:27.511Z,1.50
2018-02-01T13:48:54.250Z,2.30
2018-02-01T13:51:22.109Z,1.70
2018-02-01T13:53:49.136Z,1.97
2018-02-01T13:56:15.840Z,1.70
2018-02-01T13:58:42.549Z,1.90
2018-02-01T14:01:09.282Z,1.90
2018-02-01T14:03:35.979Z,2.00
2018-02-01T14:06:03.553Z,1.90
2018-02-01T14:08:30.456Z,2.00
2018-02-01T14:10:57.710Z,1.70
2018-02-01T14:13:24.432Z,1.90
2018-02-01T14:15:51.311Z,2.10
2018-02-01T14:18:20.050Z,1.63
2018-02-01T14:20:46.791Z,2.27
2018-02-01T14:23:14.383Z,2.07
2018-02-01T14:25:41.165Z,2.20
2018-02-01T14:28:07.862Z,1.73
2018-02-01T14:30:34.634Z,1.53
2018-02-01T14:33:01.599Z,2.07
2018-02-01T14:35:28.494Z,1.60
2018-02-01T14:37:55.208Z,2.00
2018-02-01T14:40:22.033Z,1.70
2018-02-01T14:42:48.835Z,1.53
2018-02-01T14:45:15.582Z,2.00
2018-02-01T14:47:42.328Z,2.13
2018-02-01T14:50:09.030Z,2.00
2018-02-01T14:52:35.856Z,2.23
2018-02-01T14:55:02.600Z,1.70
2018-02-01T14:57:29.271Z,2.03
2018-02-01T14:59:56.089Z,2.30
2018-02-01T15:02:22.802Z,2.00
2018-02-01T15:04:49.544Z,1.90
2018-02-01T15:07:16.320Z,1.70
2018-02-01T15:09:43.026Z,2.23
2018-02-01T15:12:09.790Z,1.70
2018-02-01T15:14:36.847Z,1.83
2018-02-01T15:17:03.665Z,1.83
2018-02-01T15:19:30.418Z,1.50
2018-02-01T15:21:57.266Z,2.20
2018-02-01T15:24:24.020Z,2.27
2018-02-01T15:26:50.756Z,1.50
2018-02-01T15:29:17.510Z,2.07
2018-02-01T15:31:44.249Z,2.13
2018-02-01T15:34:11.234Z,1.60
2018-02-01T15:36:38.864Z,1.87
2018-02-01T15:39:05.552Z,2.20
2018-02-01T15:41:32.542Z,2.00
2018-02-01T15:43:59.333Z,1.70
2018-02-01T15:46:26.056Z,1.60
2018-02-01T15:48:52.866Z,1.70
2018-02-01T15:51:19.581Z,2.23
2018-02-01T15:53:46.814Z,1.57
2018-02-01T15:56:13.532Z,1.80
2018-02-01T15:58:40.231Z,1.60
2018-02-01T16:01:07.014Z,1.50
2018-02-01T16:03:33.708Z,1.93
2018-02-01T16:06:00.605Z,1.97
2018-02-01T16:08:27.341Z,1.90
2018-02-01T16:10:54.155Z,1.93
2018-02-01T16:13:20.902Z,1.60
2018-02-01T16:15:47.641Z,1.70
2018-02-01T16:18:14.434Z,2.00
2018-02-01T16:20:41.137Z,3.03
2018-02-01T16:23:07.869Z,2.20
2018-02-01T16:25:35.570Z,2.00
2018-02-01T16:28:02.412Z,2.63
2018-02-01T16:30:29.463Z,2.50
2018-02-01T16:32:56.203Z,2.20
2018-02-01T16:35:22.962Z,2.10
2018-02-01T16:37:50.761Z,3.00
2018-02-01T16:40:17.709Z,2.20
2018-02-01T16:42:44.412Z,3.50
2018-02-01T16:45:11.212Z,2.83
2018-02-01T16:47:38.383Z,2.60
2018-02-01T16:50:05.104Z,3.20
2018-02-01T16:52:32.381Z,2.80
2018-02-01T16:54:59.212Z,2.10
2018-02-01T16:57:25.933Z,1.90
2018-02-01T16:59:52.634Z,2.03
2018-02-01T17:02:19.433Z,2.23
2018-02-01T17:04:46.196Z,2.20
2018-02-01T17:07:13.061Z,2.90
2018-02-01T17:09:39.775Z,3.10
2018-02-01T17:12:06.602Z,3.30
2018-02-01T17:14:33.289Z,2.90
2018-02-01T17:17:00.134Z,3.90
2018-02-01T17:19:27.006Z,3.93
2018-02-01T17:21:53.784Z,4.07
2018-02-01T17:24:20.546Z,3.73
2018-02-01T17:26:47.286Z,3.60
2018-02-01T17:29:13.996Z,3.80
2018-02-01T17:31:40.743Z,3.70
2018-02-01T17:34:07.432Z,4.20
2018-02-01T17:36:34.203Z,5.10
2018-02-01T17:39:01.452Z,3.30
2018-02-01T17:41:28.373Z,3.37
2018-02-01T17:43:55.088Z,3.60
2018-02-01T17:46:21.815Z,2.80
2018-02-01T17:48:49.125Z,2.70
2018-02-01T17:51:15.833Z,2.83
2018-02-01T17:53:42.886Z,2.63
2018-02-01T17:56:09.677Z,4.63
2018-02-01T17:58:36.360Z,2.90
2018-02-01T18:01:03.103Z,3.10
2018-02-01T18:03:29.939Z,3.03
2018-02-01T18:05:56.797Z,2.90
2018-02-01T18:08:23.524Z,2.50
2018-02-01T18:10:50.474Z,2.90
2018-02-01T18:13:17.928Z,3.30
2018-02-01T18:15:44.636Z,2.70
2018-02-01T18:18:11.435Z,2.77
2018-02-01T18:20:38.177Z,3.73
2018-02-01T18:23:04.915Z,2.90
2018-02-01T18:25:31.659Z,3.17
2018-02-01T18:27:58.435Z,1.90
2018-02-01T18:30:25.144Z,2.43
2018-02-01T18:32:52.272Z,2.40
2018-02-01T18:35:19.052Z,2.10
2018-02-01T18:37:45.915Z,2.23
2018-02-01T18:40:12.629Z,2.30
2018-02-01T18:42:40.415Z,3.20
2018-02-01T18:45:07.172Z,1.57
2018-02-01T18:47:33.979Z,1.93
2018-02-01T18:50:00.686Z,1.97
2018-02-01T18:52:27.413Z,2.63
2018-02-01T18:54:54.159Z,2.10
2018-02-01T18:57:20.931Z,2.53
2018-02-01T18:59:47.879Z,2.43
2018-02-01T19:02:14.677Z,2.70
2018-02-01T19:04:45.298Z,2.97
2018-02-01T19:07:12.206Z,2.63
2018-02-01T19:09:38.917Z,2.63
2018-02-01T19:12:05.784Z,2.53
2018-02-01T19:14:32.550Z,2.60
2018-02-01T19:16:59.261Z,2.40
2018-02-01T19:19:27.274Z,2.93
2018-02-01T19:21:54.521Z,2.90
2018-02-01T19:24:22.632Z,2.60
2018-02-01T19:26:49.481Z,2.57
2018-02-01T19:29:16.978Z,2.47
2018-02-01T19:31:44.051Z,2.67
2018-02-01T19:34:10.969Z,2.83
2018-02-01T19:36:37.735Z,2.60
2018-02-01T19:39:05.259Z,4.00
2018-02-01T19:41:32.001Z,2.60
2018-02-01T19:43:58.716Z,2.47
2018-02-01T19:46:25.446Z,3.20
2018-02-01T19:48:52.234Z,2.80
2018-02-01T19:51:19.773Z,2.63
2018-02-01T19:53:46.458Z,3.07
2018-02-01T19:56:13.171Z,3.10
2018-02-01T19:58:39.875Z,2.50
2018-02-01T20:01:06.603Z,3.30
2018-02-01T20:03:33.317Z,2.60
2018-02-01T20:06:00.222Z,3.20
2018-02-01T20:08:26.914Z,2.70
2018-02-01T20:10:53.620Z,2.60
2018-02-01T20:13:20.491Z,2.50
2018-02-01T20:15:47.209Z,2.70
2018-02-01T20:18:13.902Z,2.40
2018-02-01T20:20:40.618Z,2.40
2018-02-01T20:23:07.321Z,2.00
2018-02-01T20:25:34.089Z,1.90
2018-02-01T20:28:00.810Z,2.30
2018-02-01T20:30:28.267Z,2.10
2018-02-01T20:32:54.967Z,1.97
2018-02-01T20:35:21.821Z,2.07
2018-02-01T20:37:48.556Z,2.00
2018-02-01T20:40:15.274Z,2.53
2018-02-01T20:42:42.032Z,2.60
2018-02-01T20:45:08.781Z,2.50
2018-02-01T20:47:36.109Z,2.50
2018-02-01T20:50:02.840Z,2.23
2018-02-01T20:52:29.582Z,2.37
2018-02-01T20:54:56.300Z,2.80
2018-02-01T20:57:23.015Z,2.40
2018-02-01T20:59:49.719Z,2.83
2018-02-01T21:02:16.457Z,2.73
2018-02-01T21:04:43.245Z,2.67
2018-02-01T21:07:09.959Z,3.00
2018-02-01T21:09:37.742Z,2.70
2018-02-01T21:12:04.448Z,3.60
2018-02-01T21:14:31.260Z,2.83
2018-02-01T21:16:57.960Z,3.23
2018-02-01T21:19:24.730Z,3.27
2018-02-01T21:21:51.760Z,2.80
2018-02-01T21:24:18.455Z,3.00
2018-02-01T21:26:45.219Z,3.80
2018-02-01T21:29:12.033Z,3.40
2018-02-01T21:31:38.836Z,3.20
2018-02-01T21:34:06.190Z,3.97
2018-02-01T21:36:33.190Z,3.17
2018-02-01T21:38:59.892Z,3.60
2018-02-01T21:41:26.629Z,2.90
2018-02-01T21:43:53.346Z,2.80
2018-02-01T21:46:21.042Z,3.20
2018-02-01T21:48:48.776Z,3.40
2018-02-01T21:51:15.446Z,3.63
2018-02-01T21:53:42.256Z,3.67
2018-02-01T21:56:09.060Z,2.77
2018-02-01T21:58:35.777Z,2.93
2018-02-01T22:01:02.471Z,3.60
2018-02-01T22:03:29.595Z,3.40
2018-02-01T22:05:56.492Z,3.20
2018-02-01T22:08:23.304Z,3.57
2018-02-01T22:10:50.385Z,3.57
2018-02-01T22:13:17.139Z,3.03
2018-02-01T22:15:44.060Z,3.47
2018-02-01T22:18:10.755Z,3.47
2018-02-01T22:20:37.803Z,3.60
2018-02-01T22:23:04.590Z,3.20
2018-02-01T22:25:31.427Z,3.10
2018-02-01T22:27:58.258Z,3.40
2018-02-01T22:30:28.900Z,4.10
2018-02-01T22:32:55.945Z,3.60
2018-02-01T22:35:23.668Z,4.23
2018-02-01T22:37:50.404Z,3.67
2018-02-01T22:40:17.134Z,4.00
2018-02-01T22:42:44.290Z,4.03
2018-02-01T22:45:11.146Z,4.20
2018-02-01T22:47:38.391Z,4.67
2018-02-01T22:52:56.349Z,3.63
2018-02-01T22:55:23.300Z,3.50
2018-02-01T22:57:50.503Z,3.47
2018-02-01T23:00:17.257Z,3.90
2018-02-01T23:02:43.958Z,4.00
2018-02-01T23:05:10.928Z,4.10
2018-02-01T23:07:37.831Z,3.57
2018-02-01T23:10:04.609Z,4.23
2018-02-01T23:12:31.372Z,3.83
2018-02-01T23:14:58.092Z,4.20
2018-02-01T23:17:25.690Z,3.57
2018-02-01T23:19:53.359Z,3.43
2018-02-01T23:22:20.509Z,3.30
2018-02-01T23:24:47.352Z,3.77
2018-02-01T23:27:14.122Z,3.27
2018-02-01T23:29:40.859Z,4.00
2018-02-01T23:32:07.619Z,4.20
2018-02-01T23:34:34.398Z,3.20
2018-02-01T23:37:01.450Z,3.53
2018-02-01T23:39:28.216Z,4.10
2018-02-01T23:41:54.971Z,4.13
2018-02-01T23:44:21.678Z,4.17
2018-02-01T23:46:48.422Z,3.90
2018-02-01T23:49:15.154Z,3.93
2018-02-01T23:51:41.949Z,3.83
2018-02-01T23:54:08.686Z,3.80
2018-02-01T23:56:35.749Z,3.40
2018-02-01T23:59:02.552Z,3.00
